sensor_id;sensor_type;location;lat;lon;timestamp;temperature;humidity
10121;DHT22;5100;45.176;5.714;2023-05-10T00:02:14;19.40;74.30
10121;DHT22;5100;45.176;5.714;2023-05-10T00:04:40;19.40;73.40
10121;DHT22;5100;45.176;5.714;2023-05-10T00:07:06;19.30;72.70
10121;DHT22;5100;45.176;5.714;2023-05-10T00:09:33;19.30;72.50
10121;DHT22;5100;45.176;5.714;2023-05-10T00:11:59;19.20;72.20
10121;DHT22;5100;45.176;5.714;2023-05-10T00:14:25;19.20;72.20
10121;DHT22;5100;45.176;5.714;2023-05-10T00:16:51;19.10;72.10
10121;DHT22;5100;45.176;5.714;2023-05-10T00:19:18;19.10;72.00
10121;DHT22;5100;45.176;5.714;2023-05-10T00:21:43;19.10;72.10
10121;DHT22;5100;45.176;5.714;2023-05-10T00:24:09;19.10;72.10
10121;DHT22;5100;45.176;5.714;2023-05-10T00:26:36;19.00;72.30
10121;DHT22;5100;45.176;5.714;2023-05-10T00:29:02;19.00;72.60
10121;DHT22;5100;45.176;5.714;2023-05-10T00:31:28;19.00;72.80
10121;DHT22;5100;45.176;5.714;2023-05-10T00:33:56;19.00;72.80
10121;DHT22;5100;45.176;5.714;2023-05-10T00:36:23;19.00;73.10
10121;DHT22;5100;45.176;5.714;2023-05-10T00:38:49;19.00;73.20
10121;DHT22;5100;45.176;5.714;2023-05-10T00:41:15;19.00;73.50
10121;DHT22;5100;45.176;5.714;2023-05-10T00:43:41;19.00;73.50
10121;DHT22;5100;45.176;5.714;2023-05-10T00:46:07;19.00;73.70
10121;DHT22;5100;45.176;5.714;2023-05-10T00:48:34;19.00;74.10
10121;DHT22;5100;45.176;5.714;2023-05-10T00:51:01;19.00;74.30
10121;DHT22;5100;45.176;5.714;2023-05-10T00:53:27;19.00;74.20
10121;DHT22;5100;45.176;5.714;2023-05-10T00:55:55;19.00;73.60
10121;DHT22;5100;45.176;5.714;2023-05-10T00:58:21;19.00;73.20
10121;DHT22;5100;45.176;5.714;2023-05-10T01:00:50;19.00;72.90
10121;DHT22;5100;45.176;5.714;2023-05-10T01:03:16;19.00;72.60
10121;DHT22;5100;45.176;5.714;2023-05-10T01:05:42;19.00;72.20
10121;DHT22;5100;45.176;5.714;2023-05-10T01:08:08;19.00;71.90
10121;DHT22;5100;45.176;5.714;2023-05-10T01:10:35;19.00;71.70
10121;DHT22;5100;45.176;5.714;2023-05-10T01:13:02;19.00;71.50
10121;DHT22;5100;45.176;5.714;2023-05-10T01:15:29;18.90;71.40
10121;DHT22;5100;45.176;5.714;2023-05-10T01:17:56;18.90;71.30
10121;DHT22;5100;45.176;5.714;2023-05-10T01:20:23;18.90;71.60
10121;DHT22;5100;45.176;5.714;2023-05-10T01:37:25;18.80;71.90
10121;DHT22;5100;45.176;5.714;2023-05-10T01:40:13;18.80;71.80
10121;DHT22;5100;45.176;5.714;2023-05-10T01:42:58;18.70;71.90
10121;DHT22;5100;45.176;5.714;2023-05-10T01:45:37;18.70;72.10
10121;DHT22;5100;45.176;5.714;2023-05-10T01:48:06;18.70;72.10
10121;DHT22;5100;45.176;5.714;2023-05-10T01:50:32;18.70;72.10
10121;DHT22;5100;45.176;5.714;2023-05-10T01:53:01;18.70;71.70
10121;DHT22;5100;45.176;5.714;2023-05-10T01:55:32;18.70;71.60
10121;DHT22;5100;45.176;5.714;2023-05-10T01:58:08;18.70;71.50
10121;DHT22;5100;45.176;5.714;2023-05-10T02:00:36;18.70;71.50
10121;DHT22;5100;45.176;5.714;2023-05-10T02:03:07;18.60;71.70
10121;DHT22;5100;45.176;5.714;2023-05-10T02:05:34;18.60;71.90
10121;DHT22;5100;45.176;5.714;2023-05-10T02:08:01;18.60;72.10
10121;DHT22;5100;45.176;5.714;2023-05-10T02:10:30;18.60;72.40
10121;DHT22;5100;45.176;5.714;2023-05-10T02:12:59;18.60;72.20
10121;DHT22;5100;45.176;5.714;2023-05-10T02:15:26;18.60;71.80
10121;DHT22;5100;45.176;5.714;2023-05-10T02:17:55;18.60;71.70
10121;DHT22;5100;45.176;5.714;2023-05-10T02:20:22;18.60;71.60
10121;DHT22;5100;45.176;5.714;2023-05-10T02:22:51;18.60;71.50
10121;DHT22;5100;45.176;5.714;2023-05-10T02:25:19;18.60;71.40
10121;DHT22;5100;45.176;5.714;2023-05-10T02:27:47;18.60;71.50
10121;DHT22;5100;45.176;5.714;2023-05-10T02:30:14;18.60;71.50
10121;DHT22;5100;45.176;5.714;2023-05-10T02:32:42;18.60;71.50
10121;DHT22;5100;45.176;5.714;2023-05-10T02:35:09;18.60;71.60
10121;DHT22;5100;45.176;5.714;2023-05-10T02:37:37;18.60;71.60
10121;DHT22;5100;45.176;5.714;2023-05-10T02:40:05;18.50;71.70
10121;DHT22;5100;45.176;5.714;2023-05-10T02:42:35;18.50;71.80
10121;DHT22;5100;45.176;5.714;2023-05-10T02:45:08;18.50;71.80
10121;DHT22;5100;45.176;5.714;2023-05-10T02:47:36;18.50;71.80
10121;DHT22;5100;45.176;5.714;2023-05-10T02:50:02;18.50;71.80
10121;DHT22;5100;45.176;5.714;2023-05-10T02:52:43;18.50;71.70
10121;DHT22;5100;45.176;5.714;2023-05-10T02:55:14;18.50;71.70
10121;DHT22;5100;45.176;5.714;2023-05-10T02:57:46;18.40;71.80
10121;DHT22;5100;45.176;5.714;2023-05-10T03:00:14;18.40;71.90
10121;DHT22;5100;45.176;5.714;2023-05-10T03:02:41;18.40;72.00
10121;DHT22;5100;45.176;5.714;2023-05-10T03:05:08;18.40;72.00
10121;DHT22;5100;45.176;5.714;2023-05-10T03:07:34;18.40;71.70
10121;DHT22;5100;45.176;5.714;2023-05-10T03:10:01;18.40;71.70
10121;DHT22;5100;45.176;5.714;2023-05-10T03:12:31;18.40;71.70
10121;DHT22;5100;45.176;5.714;2023-05-10T03:20:25;18.40;72.10
10121;DHT22;5100;45.176;5.714;2023-05-10T03:22:57;18.40;72.00
10121;DHT22;5100;45.176;5.714;2023-05-10T03:25:26;18.40;72.00
10121;DHT22;5100;45.176;5.714;2023-05-10T03:27:53;18.30;71.90
10121;DHT22;5100;45.176;5.714;2023-05-10T03:30:20;18.30;71.60
10121;DHT22;5100;45.176;5.714;2023-05-10T03:32:47;18.30;71.30
10121;DHT22;5100;45.176;5.714;2023-05-10T03:35:15;18.30;71.00
10121;DHT22;5100;45.176;5.714;2023-05-10T03:37:41;18.30;70.70
10121;DHT22;5100;45.176;5.714;2023-05-10T03:40:08;18.30;70.40
10121;DHT22;5100;45.176;5.714;2023-05-10T03:42:34;18.20;70.40
10121;DHT22;5100;45.176;5.714;2023-05-10T03:45:01;18.20;70.20
10121;DHT22;5100;45.176;5.714;2023-05-10T03:47:28;18.20;70.10
10121;DHT22;5100;45.176;5.714;2023-05-10T03:49:55;18.20;69.90
10121;DHT22;5100;45.176;5.714;2023-05-10T03:52:22;18.20;70.00
10121;DHT22;5100;45.176;5.714;2023-05-10T03:54:48;18.20;70.20
10121;DHT22;5100;45.176;5.714;2023-05-10T03:57:14;18.20;70.30
10121;DHT22;5100;45.176;5.714;2023-05-10T03:59:40;18.10;70.20
10121;DHT22;5100;45.176;5.714;2023-05-10T04:02:07;18.10;70.20
10121;DHT22;5100;45.176;5.714;2023-05-10T04:04:33;18.10;70.20
10121;DHT22;5100;45.176;5.714;2023-05-10T04:06:59;18.10;70.10
10121;DHT22;5100;45.176;5.714;2023-05-10T04:09:25;18.10;70.00
10121;DHT22;5100;45.176;5.714;2023-05-10T04:11:51;18.10;70.00
10121;DHT22;5100;45.176;5.714;2023-05-10T04:14:17;18.10;70.10
10121;DHT22;5100;45.176;5.714;2023-05-10T04:16:43;18.10;70.30
10121;DHT22;5100;45.176;5.714;2023-05-10T04:19:10;18.10;70.40
10121;DHT22;5100;45.176;5.714;2023-05-10T04:21:36;18.10;70.50
10121;DHT22;5100;45.176;5.714;2023-05-10T04:24:02;18.10;70.40
10121;DHT22;5100;45.176;5.714;2023-05-10T04:26:28;18.00;70.40
10121;DHT22;5100;45.176;5.714;2023-05-10T04:28:55;18.00;70.30
10121;DHT22;5100;45.176;5.714;2023-05-10T04:31:20;18.00;70.50
10121;DHT22;5100;45.176;5.714;2023-05-10T04:33:48;18.00;71.10
10121;DHT22;5100;45.176;5.714;2023-05-10T04:36:15;18.00;71.90
10121;DHT22;5100;45.176;5.714;2023-05-10T04:38:41;17.90;73.00
10121;DHT22;5100;45.176;5.714;2023-05-10T04:41:09;17.90;73.50
10121;DHT22;5100;45.176;5.714;2023-05-10T04:43:36;17.90;74.00
10121;DHT22;5100;45.176;5.714;2023-05-10T04:46:04;17.80;74.10
10121;DHT22;5100;45.176;5.714;2023-05-10T04:48:30;17.80;74.30
10121;DHT22;5100;45.176;5.714;2023-05-10T04:50:56;17.70;74.60
10121;DHT22;5100;45.176;5.714;2023-05-10T04:53:22;17.70;74.50
10121;DHT22;5100;45.176;5.714;2023-05-10T04:55:49;17.60;74.70
10121;DHT22;5100;45.176;5.714;2023-05-10T04:58:15;17.50;74.90
10121;DHT22;5100;45.176;5.714;2023-05-10T05:00:41;17.50;75.10
10121;DHT22;5100;45.176;5.714;2023-05-10T05:03:08;17.50;75.20
10121;DHT22;5100;45.176;5.714;2023-05-10T05:05:34;17.40;75.20
10121;DHT22;5100;45.176;5.714;2023-05-10T05:08:00;17.40;75.20
10121;DHT22;5100;45.176;5.714;2023-05-10T05:10:27;17.40;75.30
10121;DHT22;5100;45.176;5.714;2023-05-10T05:12:52;17.40;75.40
10121;DHT22;5100;45.176;5.714;2023-05-10T05:15:19;17.40;75.40
10121;DHT22;5100;45.176;5.714;2023-05-10T05:17:45;17.40;75.40
10121;DHT22;5100;45.176;5.714;2023-05-10T05:20:11;17.40;75.20
10121;DHT22;5100;45.176;5.714;2023-05-10T05:22:37;17.40;75.10
10121;DHT22;5100;45.176;5.714;2023-05-10T05:25:04;17.40;75.10
10121;DHT22;5100;45.176;5.714;2023-05-10T05:27:31;17.40;75.00
10121;DHT22;5100;45.176;5.714;2023-05-10T05:29:57;17.40;75.00
10121;DHT22;5100;45.176;5.714;2023-05-10T05:32:24;17.40;74.90
10121;DHT22;5100;45.176;5.714;2023-05-10T05:34:51;17.40;74.80
10121;DHT22;5100;45.176;5.714;2023-05-10T05:37:21;17.40;74.80
10121;DHT22;5100;45.176;5.714;2023-05-10T05:39:48;17.40;74.80
10121;DHT22;5100;45.176;5.714;2023-05-10T05:42:14;17.40;74.60
10121;DHT22;5100;45.176;5.714;2023-05-10T05:44:42;17.40;74.30
10121;DHT22;5100;45.176;5.714;2023-05-10T05:47:08;17.50;74.10
10121;DHT22;5100;45.176;5.714;2023-05-10T05:49:34;17.50;74.10
10121;DHT22;5100;45.176;5.714;2023-05-10T05:52:02;17.50;74.00
10121;DHT22;5100;45.176;5.714;2023-05-10T05:54:28;17.50;73.90
10121;DHT22;5100;45.176;5.714;2023-05-10T05:56:58;17.50;73.70
10121;DHT22;5100;45.176;5.714;2023-05-10T05:59:24;17.50;73.80
10121;DHT22;5100;45.176;5.714;2023-05-10T06:01:50;17.60;73.40
10121;DHT22;5100;45.176;5.714;2023-05-10T06:04:17;17.60;73.20
10121;DHT22;5100;45.176;5.714;2023-05-10T06:06:43;17.60;73.00
10121;DHT22;5100;45.176;5.714;2023-05-10T06:09:09;17.60;72.30
10121;DHT22;5100;45.176;5.714;2023-05-10T06:11:35;17.60;71.70
10121;DHT22;5100;45.176;5.714;2023-05-10T06:14:02;17.70;71.40
10121;DHT22;5100;45.176;5.714;2023-05-10T06:16:30;17.70;71.20
10121;DHT22;5100;45.176;5.714;2023-05-10T06:18:57;17.70;70.70
10121;DHT22;5100;45.176;5.714;2023-05-10T06:21:23;17.70;70.50
10121;DHT22;5100;45.176;5.714;2023-05-10T06:23:49;17.70;69.90
10121;DHT22;5100;45.176;5.714;2023-05-10T06:26:15;17.70;69.60
10121;DHT22;5100;45.176;5.714;2023-05-10T06:28:41;17.70;69.20
10121;DHT22;5100;45.176;5.714;2023-05-10T06:31:07;17.70;69.10
10121;DHT22;5100;45.176;5.714;2023-05-10T06:33:34;17.70;69.00
10121;DHT22;5100;45.176;5.714;2023-05-10T06:36:00;17.70;68.90
10121;DHT22;5100;45.176;5.714;2023-05-10T06:38:26;17.80;68.80
10121;DHT22;5100;45.176;5.714;2023-05-10T06:40:52;17.80;68.60
10121;DHT22;5100;45.176;5.714;2023-05-10T06:43:18;17.80;68.50
10121;DHT22;5100;45.176;5.714;2023-05-10T06:45:44;17.80;68.20
10121;DHT22;5100;45.176;5.714;2023-05-10T06:48:10;17.80;67.80
10121;DHT22;5100;45.176;5.714;2023-05-10T06:50:36;17.80;67.70
10121;DHT22;5100;45.176;5.714;2023-05-10T06:53:02;17.80;67.60
10121;DHT22;5100;45.176;5.714;2023-05-10T06:55:28;17.80;67.30
10121;DHT22;5100;45.176;5.714;2023-05-10T06:57:55;17.80;66.50
10121;DHT22;5100;45.176;5.714;2023-05-10T07:00:21;17.80;66.20
10121;DHT22;5100;45.176;5.714;2023-05-10T07:02:47;17.90;66.00
10121;DHT22;5100;45.176;5.714;2023-05-10T07:05:13;17.90;65.60
10121;DHT22;5100;45.176;5.714;2023-05-10T07:07:40;18.00;65.60
10121;DHT22;5100;45.176;5.714;2023-05-10T07:10:06;18.00;65.60
10121;DHT22;5100;45.176;5.714;2023-05-10T07:12:33;18.10;64.60
10121;DHT22;5100;45.176;5.714;2023-05-10T07:14:59;18.10;64.60
10121;DHT22;5100;45.176;5.714;2023-05-10T07:17:25;18.10;64.10
10121;DHT22;5100;45.176;5.714;2023-05-10T07:19:51;18.10;64.30
10121;DHT22;5100;45.176;5.714;2023-05-10T07:22:17;18.10;64.10
10121;DHT22;5100;45.176;5.714;2023-05-10T07:24:44;18.10;64.10
10121;DHT22;5100;45.176;5.714;2023-05-10T07:27:10;18.10;63.80
10121;DHT22;5100;45.176;5.714;2023-05-10T07:29:36;18.10;63.90
10121;DHT22;5100;45.176;5.714;2023-05-10T07:32:03;18.10;63.70
10121;DHT22;5100;45.176;5.714;2023-05-10T07:34:29;18.20;63.50
10121;DHT22;5100;45.176;5.714;2023-05-10T07:36:58;18.20;63.50
10121;DHT22;5100;45.176;5.714;2023-05-10T07:39:26;18.20;63.00
10121;DHT22;5100;45.176;5.714;2023-05-10T07:41:52;18.20;62.90
10121;DHT22;5100;45.176;5.714;2023-05-10T07:44:18;18.20;62.70
10121;DHT22;5100;45.176;5.714;2023-05-10T07:46:46;18.20;62.80
10121;DHT22;5100;45.176;5.714;2023-05-10T07:49:13;18.30;62.70
10121;DHT22;5100;45.176;5.714;2023-05-10T07:51:39;18.30;62.70
10121;DHT22;5100;45.176;5.714;2023-05-10T07:54:06;18.30;62.80
10121;DHT22;5100;45.176;5.714;2023-05-10T07:56:32;18.30;62.70
10121;DHT22;5100;45.176;5.714;2023-05-10T07:58:59;18.30;62.30
10121;DHT22;5100;45.176;5.714;2023-05-10T08:01:26;18.30;62.20
10121;DHT22;5100;45.176;5.714;2023-05-10T08:03:53;18.30;62.20
10121;DHT22;5100;45.176;5.714;2023-05-10T08:06:20;18.40;62.10
10121;DHT22;5100;45.176;5.714;2023-05-10T08:08:47;18.40;61.70
10121;DHT22;5100;45.176;5.714;2023-05-10T08:11:16;18.40;61.60
10121;DHT22;5100;45.176;5.714;2023-05-10T08:13:43;18.50;61.30
10121;DHT22;5100;45.176;5.714;2023-05-10T08:16:09;18.50;60.70
10121;DHT22;5100;45.176;5.714;2023-05-10T08:18:36;18.50;61.00
10121;DHT22;5100;45.176;5.714;2023-05-10T08:21:02;18.50;61.30
10121;DHT22;5100;45.176;5.714;2023-05-10T08:23:28;18.50;61.10
10121;DHT22;5100;45.176;5.714;2023-05-10T08:25:55;18.60;60.60
10121;DHT22;5100;45.176;5.714;2023-05-10T08:28:21;18.60;60.20
10121;DHT22;5100;45.176;5.714;2023-05-10T08:30:47;18.60;59.90
10121;DHT22;5100;45.176;5.714;2023-05-10T08:33:13;18.60;60.10
10121;DHT22;5100;45.176;5.714;2023-05-10T08:35:39;18.60;60.00
10121;DHT22;5100;45.176;5.714;2023-05-10T08:38:05;18.70;60.10
10121;DHT22;5100;45.176;5.714;2023-05-10T08:40:31;18.70;59.20
10121;DHT22;5100;45.176;5.714;2023-05-10T08:43:06;18.80;59.20
10121;DHT22;5100;45.176;5.714;2023-05-10T08:45:39;18.80;59.30
10121;DHT22;5100;45.176;5.714;2023-05-10T08:48:06;18.90;59.20
10121;DHT22;5100;45.176;5.714;2023-05-10T08:50:36;19.00;59.10
10121;DHT22;5100;45.176;5.714;2023-05-10T08:53:06;19.10;59.10
10121;DHT22;5100;45.176;5.714;2023-05-10T08:55:33;19.10;59.00
10121;DHT22;5100;45.176;5.714;2023-05-10T08:58:03;19.20;58.80
10121;DHT22;5100;45.176;5.714;2023-05-10T09:00:29;19.20;58.10
10121;DHT22;5100;45.176;5.714;2023-05-10T09:02:58;19.20;57.70
10121;DHT22;5100;45.176;5.714;2023-05-10T09:05:24;19.20;57.90
10121;DHT22;5100;45.176;5.714;2023-05-10T09:07:50;19.20;57.80
10121;DHT22;5100;45.176;5.714;2023-05-10T09:10:17;19.20;57.60
10121;DHT22;5100;45.176;5.714;2023-05-10T09:12:44;19.20;57.60
10121;DHT22;5100;45.176;5.714;2023-05-10T09:15:11;19.20;57.80
10121;DHT22;5100;45.176;5.714;2023-05-10T09:17:40;19.20;57.50
10121;DHT22;5100;45.176;5.714;2023-05-10T09:20:07;19.30;56.60
10121;DHT22;5100;45.176;5.714;2023-05-10T09:22:34;19.30;57.10
10121;DHT22;5100;45.176;5.714;2023-05-10T09:25:12;19.30;56.80
10121;DHT22;5100;45.176;5.714;2023-05-10T09:27:40;19.30;56.80
10121;DHT22;5100;45.176;5.714;2023-05-10T09:30:08;19.30;56.30
10121;DHT22;5100;45.176;5.714;2023-05-10T09:32:38;19.30;56.50
10121;DHT22;5100;45.176;5.714;2023-05-10T09:35:08;19.30;56.90
10121;DHT22;5100;45.176;5.714;2023-05-10T09:37:34;19.40;57.10
10121;DHT22;5100;45.176;5.714;2023-05-10T09:40:00;19.40;57.00
10121;DHT22;5100;45.176;5.714;2023-05-10T09:42:30;19.40;56.70
10121;DHT22;5100;45.176;5.714;2023-05-10T09:45:01;19.40;56.90
10121;DHT22;5100;45.176;5.714;2023-05-10T09:47:27;19.40;56.70
10121;DHT22;5100;45.176;5.714;2023-05-10T09:49:53;19.30;56.40
10121;DHT22;5100;45.176;5.714;2023-05-10T09:52:23;19.30;55.90
10121;DHT22;5100;45.176;5.714;2023-05-10T09:54:53;19.40;55.90
10121;DHT22;5100;45.176;5.714;2023-05-10T09:57:24;19.40;56.10
10121;DHT22;5100;45.176;5.714;2023-05-10T09:59:51;19.40;55.80
10121;DHT22;5100;45.176;5.714;2023-05-10T10:02:19;19.40;55.60
10121;DHT22;5100;45.176;5.714;2023-05-10T10:04:49;19.40;55.60
10121;DHT22;5100;45.176;5.714;2023-05-10T10:07:15;19.50;55.40
10121;DHT22;5100;45.176;5.714;2023-05-10T10:09:48;19.50;55.60
10121;DHT22;5100;45.176;5.714;2023-05-10T10:12:14;19.50;55.50
10121;DHT22;5100;45.176;5.714;2023-05-10T10:14:40;19.50;55.20
10121;DHT22;5100;45.176;5.714;2023-05-10T10:17:07;19.50;55.10
10121;DHT22;5100;45.176;5.714;2023-05-10T10:19:34;19.60;54.80
10121;DHT22;5100;45.176;5.714;2023-05-10T10:22:03;19.60;55.00
10121;DHT22;5100;45.176;5.714;2023-05-10T10:24:30;19.60;54.60
10121;DHT22;5100;45.176;5.714;2023-05-10T10:27:09;19.60;54.30
10121;DHT22;5100;45.176;5.714;2023-05-10T10:29:47;19.70;54.10
10121;DHT22;5100;45.176;5.714;2023-05-10T10:32:37;19.70;54.40
10121;DHT22;5100;45.176;5.714;2023-05-10T10:35:08;19.70;54.10
10121;DHT22;5100;45.176;5.714;2023-05-10T10:37:46;19.70;53.90
10121;DHT22;5100;45.176;5.714;2023-05-10T10:40:26;19.70;54.10
10121;DHT22;5100;45.176;5.714;2023-05-10T10:42:53;19.80;54.30
10121;DHT22;5100;45.176;5.714;2023-05-10T10:45:20;19.80;53.90
10121;DHT22;5100;45.176;5.714;2023-05-10T10:47:47;19.80;53.70
10121;DHT22;5100;45.176;5.714;2023-05-10T10:50:13;19.80;53.50
10121;DHT22;5100;45.176;5.714;2023-05-10T10:52:43;19.80;53.00
10121;DHT22;5100;45.176;5.714;2023-05-10T10:55:14;19.90;52.80
10121;DHT22;5100;45.176;5.714;2023-05-10T10:57:53;19.90;53.00
10121;DHT22;5100;45.176;5.714;2023-05-10T11:00:30;19.90;52.40
10121;DHT22;5100;45.176;5.714;2023-05-10T11:03:06;20.00;52.70
10121;DHT22;5100;45.176;5.714;2023-05-10T11:05:37;20.00;52.50
10121;DHT22;5100;45.176;5.714;2023-05-10T11:08:08;20.10;51.90
10121;DHT22;5100;45.176;5.714;2023-05-10T11:10:35;20.10;51.00
10121;DHT22;5100;45.176;5.714;2023-05-10T11:13:03;20.10;50.90
10121;DHT22;5100;45.176;5.714;2023-05-10T11:15:33;20.20;51.10
10121;DHT22;5100;45.176;5.714;2023-05-10T11:17:59;20.20;51.70
10121;DHT22;5100;45.176;5.714;2023-05-10T11:20:42;20.30;52.00
10121;DHT22;5100;45.176;5.714;2023-05-10T11:23:12;20.30;52.30
10121;DHT22;5100;45.176;5.714;2023-05-10T11:25:45;20.40;52.50
10121;DHT22;5100;45.176;5.714;2023-05-10T11:28:12;20.50;53.20
10121;DHT22;5100;45.176;5.714;2023-05-10T11:30:43;20.50;53.80
10121;DHT22;5100;45.176;5.714;2023-05-10T11:33:14;20.50;53.80
10121;DHT22;5100;45.176;5.714;2023-05-10T11:35:41;20.60;53.70
10121;DHT22;5100;45.176;5.714;2023-05-10T11:38:08;20.60;54.00
10121;DHT22;5100;45.176;5.714;2023-05-10T11:40:36;20.60;54.30
10121;DHT22;5100;45.176;5.714;2023-05-10T11:43:03;20.60;54.10
10121;DHT22;5100;45.176;5.714;2023-05-10T11:45:32;20.50;54.20
10121;DHT22;5100;45.176;5.714;2023-05-10T11:48:00;20.50;54.40
10121;DHT22;5100;45.176;5.714;2023-05-10T11:50:26;20.50;54.50
10121;DHT22;5100;45.176;5.714;2023-05-10T11:52:54;20.50;53.70
10121;DHT22;5100;45.176;5.714;2023-05-10T11:55:21;20.50;53.80
10121;DHT22;5100;45.176;5.714;2023-05-10T11:57:51;20.50;53.90
10121;DHT22;5100;45.176;5.714;2023-05-10T12:00:17;20.50;54.00
10121;DHT22;5100;45.176;5.714;2023-05-10T12:02:44;20.50;54.30
10121;DHT22;5100;45.176;5.714;2023-05-10T12:05:10;20.50;54.60
10121;DHT22;5100;45.176;5.714;2023-05-10T12:07:36;20.50;54.50
10121;DHT22;5100;45.176;5.714;2023-05-10T12:10:07;20.40;53.80
10121;DHT22;5100;45.176;5.714;2023-05-10T12:12:46;20.40;53.50
10121;DHT22;5100;45.176;5.714;2023-05-10T12:15:23;20.40;53.40
10121;DHT22;5100;45.176;5.714;2023-05-10T12:17:50;20.40;53.00
10121;DHT22;5100;45.176;5.714;2023-05-10T12:20:19;20.40;52.80
10121;DHT22;5100;45.176;5.714;2023-05-10T12:22:55;20.40;52.90
10121;DHT22;5100;45.176;5.714;2023-05-10T12:25:23;20.40;53.00
10121;DHT22;5100;45.176;5.714;2023-05-10T12:27:53;20.40;53.10
10121;DHT22;5100;45.176;5.714;2023-05-10T12:30:25;20.40;52.80
10121;DHT22;5100;45.176;5.714;2023-05-10T12:32:53;20.40;52.70
10121;DHT22;5100;45.176;5.714;2023-05-10T12:35:19;20.30;52.60
10121;DHT22;5100;45.176;5.714;2023-05-10T12:37:52;20.30;52.60
10121;DHT22;5100;45.176;5.714;2023-05-10T12:40:18;20.30;52.90
10121;DHT22;5100;45.176;5.714;2023-05-10T12:42:44;20.30;52.70
10121;DHT22;5100;45.176;5.714;2023-05-10T12:45:11;20.40;52.40
10121;DHT22;5100;45.176;5.714;2023-05-10T12:47:38;20.40;52.50
10121;DHT22;5100;45.176;5.714;2023-05-10T12:50:05;20.50;52.80
10121;DHT22;5100;45.176;5.714;2023-05-10T12:52:32;20.50;52.60
10121;DHT22;5100;45.176;5.714;2023-05-10T12:54:58;20.50;52.90
10121;DHT22;5100;45.176;5.714;2023-05-10T12:57:25;20.50;52.80
10121;DHT22;5100;45.176;5.714;2023-05-10T12:59:52;20.50;52.00
10121;DHT22;5100;45.176;5.714;2023-05-10T13:02:18;20.50;51.70
10121;DHT22;5100;45.176;5.714;2023-05-10T13:04:45;20.50;51.70
10121;DHT22;5100;45.176;5.714;2023-05-10T13:07:12;20.50;51.90
10121;DHT22;5100;45.176;5.714;2023-05-10T13:09:40;20.50;51.90
10121;DHT22;5100;45.176;5.714;2023-05-10T13:12:06;20.50;51.60
10121;DHT22;5100;45.176;5.714;2023-05-10T13:14:32;20.50;51.50
10121;DHT22;5100;45.176;5.714;2023-05-10T13:16:58;20.50;51.80
10121;DHT22;5100;45.176;5.714;2023-05-10T13:19:25;20.50;52.00
10121;DHT22;5100;45.176;5.714;2023-05-10T13:21:51;20.50;51.80
10121;DHT22;5100;45.176;5.714;2023-05-10T13:24:18;20.50;51.60
10121;DHT22;5100;45.176;5.714;2023-05-10T13:26:43;20.50;51.60
10121;DHT22;5100;45.176;5.714;2023-05-10T13:29:10;20.50;51.40
10121;DHT22;5100;45.176;5.714;2023-05-10T13:31:36;20.50;51.60
10121;DHT22;5100;45.176;5.714;2023-05-10T13:34:03;20.50;51.90
10121;DHT22;5100;45.176;5.714;2023-05-10T13:36:30;20.50;51.80
10121;DHT22;5100;45.176;5.714;2023-05-10T13:38:57;20.50;52.00
10121;DHT22;5100;45.176;5.714;2023-05-10T13:41:23;20.50;51.90
10121;DHT22;5100;45.176;5.714;2023-05-10T13:43:49;20.50;52.00
10121;DHT22;5100;45.176;5.714;2023-05-10T13:46:16;20.50;52.00
10121;DHT22;5100;45.176;5.714;2023-05-10T13:48:42;20.50;51.70
10121;DHT22;5100;45.176;5.714;2023-05-10T13:51:08;20.50;51.90
10121;DHT22;5100;45.176;5.714;2023-05-10T13:53:34;20.50;51.80
10121;DHT22;5100;45.176;5.714;2023-05-10T13:56:00;20.50;51.70
10121;DHT22;5100;45.176;5.714;2023-05-10T13:58:28;20.50;51.70
10121;DHT22;5100;45.176;5.714;2023-05-10T14:00:55;20.50;51.30
10121;DHT22;5100;45.176;5.714;2023-05-10T14:03:22;20.60;51.30
10121;DHT22;5100;45.176;5.714;2023-05-10T14:05:48;20.70;51.10
10121;DHT22;5100;45.176;5.714;2023-05-10T14:08:14;20.70;51.10
10121;DHT22;5100;45.176;5.714;2023-05-10T14:10:40;20.80;50.90
10121;DHT22;5100;45.176;5.714;2023-05-10T14:13:07;20.90;50.80
10121;DHT22;5100;45.176;5.714;2023-05-10T14:15:33;20.90;50.60
10121;DHT22;5100;45.176;5.714;2023-05-10T14:17:59;21.00;50.60
10121;DHT22;5100;45.176;5.714;2023-05-10T14:20:26;21.00;50.10
10121;DHT22;5100;45.176;5.714;2023-05-10T14:22:52;21.00;50.10
10121;DHT22;5100;45.176;5.714;2023-05-10T14:25:18;21.00;50.20
10121;DHT22;5100;45.176;5.714;2023-05-10T14:27:44;21.00;50.20
10121;DHT22;5100;45.176;5.714;2023-05-10T14:30:10;20.90;50.20
10121;DHT22;5100;45.176;5.714;2023-05-10T14:32:37;20.90;49.90
10121;DHT22;5100;45.176;5.714;2023-05-10T14:35:04;20.90;50.00
10121;DHT22;5100;45.176;5.714;2023-05-10T14:37:31;20.90;49.70
10121;DHT22;5100;45.176;5.714;2023-05-10T14:39:58;20.80;49.70
10121;DHT22;5100;45.176;5.714;2023-05-10T14:42:24;20.80;49.90
10121;DHT22;5100;45.176;5.714;2023-05-10T14:44:50;20.80;50.30
10121;DHT22;5100;45.176;5.714;2023-05-10T14:47:16;20.70;50.50
10121;DHT22;5100;45.176;5.714;2023-05-10T14:49:42;20.70;50.30
10121;DHT22;5100;45.176;5.714;2023-05-10T14:52:08;20.70;50.50
10121;DHT22;5100;45.176;5.714;2023-05-10T14:54:34;20.60;50.20
10121;DHT22;5100;45.176;5.714;2023-05-10T14:57:00;20.60;50.50
10121;DHT22;5100;45.176;5.714;2023-05-10T14:59:26;20.60;50.70
10121;DHT22;5100;45.176;5.714;2023-05-10T15:01:52;20.60;50.40
10121;DHT22;5100;45.176;5.714;2023-05-10T15:04:18;20.50;50.50
10121;DHT22;5100;45.176;5.714;2023-05-10T15:06:44;20.50;50.60
10121;DHT22;5100;45.176;5.714;2023-05-10T15:09:11;20.50;50.90
10121;DHT22;5100;45.176;5.714;2023-05-10T15:11:37;20.40;51.00
10121;DHT22;5100;45.176;5.714;2023-05-10T15:14:02;20.40;51.30
10121;DHT22;5100;45.176;5.714;2023-05-10T15:16:29;20.40;51.40
10121;DHT22;5100;45.176;5.714;2023-05-10T15:18:55;20.30;51.40
10121;DHT22;5100;45.176;5.714;2023-05-10T15:21:21;20.30;51.70
10121;DHT22;5100;45.176;5.714;2023-05-10T15:23:48;20.30;51.60
10121;DHT22;5100;45.176;5.714;2023-05-10T15:26:13;20.30;51.70
10121;DHT22;5100;45.176;5.714;2023-05-10T15:28:39;20.30;51.90
10121;DHT22;5100;45.176;5.714;2023-05-10T15:31:06;20.30;51.90
10121;DHT22;5100;45.176;5.714;2023-05-10T15:33:32;20.30;52.00
10121;DHT22;5100;45.176;5.714;2023-05-10T15:35:58;20.30;52.20
10121;DHT22;5100;45.176;5.714;2023-05-10T15:38:24;20.20;52.20
10121;DHT22;5100;45.176;5.714;2023-05-10T15:40:50;20.20;52.30
10121;DHT22;5100;45.176;5.714;2023-05-10T15:43:16;20.30;52.10
10121;DHT22;5100;45.176;5.714;2023-05-10T15:45:42;20.30;51.50
10121;DHT22;5100;45.176;5.714;2023-05-10T15:48:08;20.30;51.10
10121;DHT22;5100;45.176;5.714;2023-05-10T15:50:34;20.30;51.70
10121;DHT22;5100;45.176;5.714;2023-05-10T15:53:00;20.30;51.70
10121;DHT22;5100;45.176;5.714;2023-05-10T15:55:26;20.30;51.90
10121;DHT22;5100;45.176;5.714;2023-05-10T15:57:52;20.30;51.70
10121;DHT22;5100;45.176;5.714;2023-05-10T16:00:19;20.30;51.50
10121;DHT22;5100;45.176;5.714;2023-05-10T16:02:44;20.30;51.00
10121;DHT22;5100;45.176;5.714;2023-05-10T16:05:11;20.30;50.60
10121;DHT22;5100;45.176;5.714;2023-05-10T16:07:37;20.30;49.70